sensor_id;sensor_type;location;lat;lon;timestamp;P1;durP1;ratioP1;P2;durP2;ratioP2
56770;SDS011;42641;59.794;17.616;2023-12-29T00:02:05;0.83;;;0.70;;
56770;SDS011;42641;59.794;17.616;2023-12-29T00:04:32;0.97;;;0.97;;
56770;SDS011;42641;59.794;17.616;2023-12-29T00:06:58;1.00;;;1.00;;
56770;SDS011;42641;59.794;17.616;2023-12-29T00:09:24;1.00;;;1.00;;
56770;SDS011;42641;59.794;17.616;2023-12-29T00:11:51;1.00;;;1.00;;
56770;SDS011;42641;59.794;17.616;2023-12-29T00:14:17;0.87;;;0.87;;
56770;SDS011;42641;59.794;17.616;2023-12-29T00:16:44;1.40;;;1.30;;
56770;SDS011;42641;59.794;17.616;2023-12-29T00:19:11;1.60;;;1.50;;
56770;SDS011;42641;59.794;17.616;2023-12-29T00:21:38;1.53;;;1.43;;
56770;SDS011;42641;59.794;17.616;2023-12-29T00:24:04;1.70;;;1.60;;
56770;SDS011;42641;59.794;17.616;2023-12-29T00:26:31;1.83;;;1.73;;
56770;SDS011;42641;59.794;17.616;2023-12-29T00:28:58;1.50;;;1.40;;
56770;SDS011;42641;59.794;17.616;2023-12-29T00:31:25;1.83;;;1.73;;
56770;SDS011;42641;59.794;17.616;2023-12-29T00:33:52;2.07;;;1.87;;
56770;SDS011;42641;59.794;17.616;2023-12-29T00:36:20;2.03;;;1.60;;
56770;SDS011;42641;59.794;17.616;2023-12-29T00:38:47;1.80;;;1.70;;
56770;SDS011;42641;59.794;17.616;2023-12-29T00:41:14;2.00;;;1.70;;
56770;SDS011;42641;59.794;17.616;2023-12-29T00:43:42;2.00;;;1.80;;
56770;SDS011;42641;59.794;17.616;2023-12-29T00:46:08;2.00;;;1.80;;
56770;SDS011;42641;59.794;17.616;2023-12-29T00:48:35;2.10;;;1.60;;
56770;SDS011;42641;59.794;17.616;2023-12-29T00:51:03;3.27;;;2.20;;
56770;SDS011;42641;59.794;17.616;2023-12-29T00:53:31;2.30;;;2.10;;
56770;SDS011;42641;59.794;17.616;2023-12-29T00:55:58;2.10;;;1.90;;
56770;SDS011;42641;59.794;17.616;2023-12-29T00:58:25;1.53;;;1.43;;
56770;SDS011;42641;59.794;17.616;2023-12-29T01:00:53;2.33;;;2.03;;
56770;SDS011;42641;59.794;17.616;2023-12-29T01:03:20;1.93;;;1.80;;
56770;SDS011;42641;59.794;17.616;2023-12-29T01:05:47;2.03;;;1.57;;
56770;SDS011;42641;59.794;17.616;2023-12-29T01:08:13;1.60;;;1.50;;
56770;SDS011;42641;59.794;17.616;2023-12-29T01:10:39;1.90;;;1.70;;
56770;SDS011;42641;59.794;17.616;2023-12-29T01:13:06;1.73;;;1.63;;
56770;SDS011;42641;59.794;17.616;2023-12-29T01:15:32;1.43;;;1.33;;
56770;SDS011;42641;59.794;17.616;2023-12-29T01:17:59;1.13;;;1.13;;
56770;SDS011;42641;59.794;17.616;2023-12-29T01:20:25;1.40;;;1.30;;
56770;SDS011;42641;59.794;17.616;2023-12-29T01:22:52;1.90;;;1.40;;
56770;SDS011;42641;59.794;17.616;2023-12-29T01:25:18;1.67;;;1.57;;
56770;SDS011;42641;59.794;17.616;2023-12-29T01:27:45;2.50;;;1.83;;
56770;SDS011;42641;59.794;17.616;2023-12-29T01:30:12;1.27;;;1.23;;
56770;SDS011;42641;59.794;17.616;2023-12-29T01:32:38;1.70;;;1.57;;
56770;SDS011;42641;59.794;17.616;2023-12-29T01:35:05;1.53;;;1.43;;
56770;SDS011;42641;59.794;17.616;2023-12-29T01:37:32;1.60;;;1.50;;
56770;SDS011;42641;59.794;17.616;2023-12-29T01:39:59;1.80;;;1.70;;
56770;SDS011;42641;59.794;17.616;2023-12-29T01:42:25;2.10;;;1.90;;
56770;SDS011;42641;59.794;17.616;2023-12-29T01:44:52;2.47;;;1.97;;
56770;SDS011;42641;59.794;17.616;2023-12-29T01:47:20;2.03;;;1.90;;
56770;SDS011;42641;59.794;17.616;2023-12-29T01:49:48;2.20;;;2.00;;
56770;SDS011;42641;59.794;17.616;2023-12-29T01:52:15;2.43;;;2.23;;
56770;SDS011;42641;59.794;17.616;2023-12-29T01:54:44;2.60;;;2.40;;
56770;SDS011;42641;59.794;17.616;2023-12-29T01:57:13;2.20;;;2.00;;
56770;SDS011;42641;59.794;17.616;2023-12-29T01:59:40;2.00;;;1.73;;
56770;SDS011;42641;59.794;17.616;2023-12-29T02:02:07;1.97;;;1.87;;
56770;SDS011;42641;59.794;17.616;2023-12-29T02:04:33;2.37;;;1.73;;
56770;SDS011;42641;59.794;17.616;2023-12-29T02:07:00;1.93;;;1.80;;
56770;SDS011;42641;59.794;17.616;2023-12-29T02:09:26;1.80;;;1.40;;
56770;SDS011;42641;59.794;17.616;2023-12-29T02:11:53;2.60;;;1.80;;
56770;SDS011;42641;59.794;17.616;2023-12-29T02:14:20;1.80;;;1.60;;
56770;SDS011;42641;59.794;17.616;2023-12-29T02:19:41;1.97;;;1.70;;
56770;SDS011;42641;59.794;17.616;2023-12-29T02:22:12;1.77;;;1.53;;
56770;SDS011;42641;59.794;17.616;2023-12-29T02:24:39;2.00;;;1.80;;
56770;SDS011;42641;59.794;17.616;2023-12-29T02:27:28;1.90;;;1.80;;
56770;SDS011;42641;59.794;17.616;2023-12-29T02:32:53;2.20;;;2.00;;
56770;SDS011;42641;59.794;17.616;2023-12-29T02:35:23;1.60;;;1.50;;
56770;SDS011;42641;59.794;17.616;2023-12-29T02:37:53;2.10;;;1.90;;
56770;SDS011;42641;59.794;17.616;2023-12-29T02:40:21;2.17;;;1.97;;
56770;SDS011;42641;59.794;17.616;2023-12-29T02:42:49;2.07;;;1.87;;
56770;SDS011;42641;59.794;17.616;2023-12-29T02:45:16;2.10;;;1.90;;
56770;SDS011;42641;59.794;17.616;2023-12-29T02:47:43;2.17;;;1.97;;
56770;SDS011;42641;59.794;17.616;2023-12-29T02:50:10;2.10;;;2.00;;
56770;SDS011;42641;59.794;17.616;2023-12-29T02:52:37;2.57;;;1.90;;
56770;SDS011;42641;59.794;17.616;2023-12-29T02:55:03;3.03;;;2.20;;
56770;SDS011;42641;59.794;17.616;2023-12-29T02:57:30;2.67;;;2.17;;
56770;SDS011;42641;59.794;17.616;2023-12-29T02:59:56;2.27;;;2.00;;
56770;SDS011;42641;59.794;17.616;2023-12-29T03:02:23;2.50;;;2.00;;
56770;SDS011;42641;59.794;17.616;2023-12-29T03:04:50;3.03;;;1.90;;
56770;SDS011;42641;59.794;17.616;2023-12-29T03:07:17;2.80;;;2.00;;
56770;SDS011;42641;59.794;17.616;2023-12-29T03:09:43;2.83;;;2.07;;
56770;SDS011;42641;59.794;17.616;2023-12-29T03:12:09;2.40;;;2.20;;
56770;SDS011;42641;59.794;17.616;2023-12-29T03:14:36;2.07;;;1.87;;
56770;SDS011;42641;59.794;17.616;2023-12-29T03:17:02;2.20;;;2.00;;
56770;SDS011;42641;59.794;17.616;2023-12-29T03:19:29;3.47;;;2.13;;
56770;SDS011;42641;59.794;17.616;2023-12-29T03:21:55;3.23;;;2.23;;
56770;SDS011;42641;59.794;17.616;2023-12-29T03:24:21;4.63;;;2.43;;
56770;SDS011;42641;59.794;17.616;2023-12-29T03:26:49;3.30;;;2.63;;
56770;SDS011;42641;59.794;17.616;2023-12-29T03:29:15;3.63;;;2.50;;
56770;SDS011;42641;59.794;17.616;2023-12-29T03:31:41;4.30;;;2.70;;
56770;SDS011;42641;59.794;17.616;2023-12-29T03:34:08;3.20;;;2.67;;
56770;SDS011;42641;59.794;17.616;2023-12-29T03:36:34;5.37;;;3.10;;
56770;SDS011;42641;59.794;17.616;2023-12-29T03:39:01;6.97;;;2.80;;
56770;SDS011;42641;59.794;17.616;2023-12-29T03:41:28;6.10;;;3.20;;
56770;SDS011;42641;59.794;17.616;2023-12-29T03:43:55;3.83;;;2.83;;
56770;SDS011;42641;59.794;17.616;2023-12-29T03:46:22;3.33;;;2.90;;
56770;SDS011;42641;59.794;17.616;2023-12-29T03:48:50;4.43;;;2.97;;
56770;SDS011;42641;59.794;17.616;2023-12-29T03:51:17;4.80;;;3.33;;
56770;SDS011;42641;59.794;17.616;2023-12-29T03:53:44;4.20;;;3.37;;
56770;SDS011;42641;59.794;17.616;2023-12-29T03:56:17;4.73;;;3.30;;
56770;SDS011;42641;59.794;17.616;2023-12-29T03:58:44;4.47;;;3.50;;
56770;SDS011;42641;59.794;17.616;2023-12-29T04:01:12;4.27;;;2.93;;
56770;SDS011;42641;59.794;17.616;2023-12-29T04:03:40;5.97;;;3.73;;
56770;SDS011;42641;59.794;17.616;2023-12-29T04:06:07;5.20;;;3.20;;
56770;SDS011;42641;59.794;17.616;2023-12-29T04:08:34;6.13;;;3.30;;
56770;SDS011;42641;59.794;17.616;2023-12-29T04:11:01;4.87;;;3.10;;
56770;SDS011;42641;59.794;17.616;2023-12-29T04:13:27;12.97;;;3.57;;
56770;SDS011;42641;59.794;17.616;2023-12-29T04:15:54;3.77;;;2.93;;
56770;SDS011;42641;59.794;17.616;2023-12-29T04:18:21;8.00;;;3.27;;
56770;SDS011;42641;59.794;17.616;2023-12-29T04:20:49;5.53;;;3.17;;
56770;SDS011;42641;59.794;17.616;2023-12-29T04:23:15;7.73;;;2.90;;
56770;SDS011;42641;59.794;17.616;2023-12-29T04:25:42;3.23;;;2.43;;
56770;SDS011;42641;59.794;17.616;2023-12-29T04:28:09;6.73;;;3.67;;
56770;SDS011;42641;59.794;17.616;2023-12-29T04:30:35;4.40;;;2.93;;
56770;SDS011;42641;59.794;17.616;2023-12-29T04:33:02;6.10;;;2.87;;
56770;SDS011;42641;59.794;17.616;2023-12-29T04:35:30;4.90;;;2.77;;
56770;SDS011;42641;59.794;17.616;2023-12-29T04:37:57;6.63;;;3.10;;
56770;SDS011;42641;59.794;17.616;2023-12-29T04:40:23;4.67;;;2.47;;
56770;SDS011;42641;59.794;17.616;2023-12-29T04:42:50;2.87;;;2.30;;
56770;SDS011;42641;59.794;17.616;2023-12-29T04:45:16;2.90;;;2.20;;
56770;SDS011;42641;59.794;17.616;2023-12-29T04:47:43;2.00;;;1.80;;
56770;SDS011;42641;59.794;17.616;2023-12-29T04:50:09;2.53;;;1.97;;
56770;SDS011;42641;59.794;17.616;2023-12-29T04:52:35;3.10;;;2.00;;
56770;SDS011;42641;59.794;17.616;2023-12-29T04:55:02;2.77;;;2.00;;
56770;SDS011;42641;59.794;17.616;2023-12-29T04:57:29;2.47;;;1.80;;
56770;SDS011;42641;59.794;17.616;2023-12-29T04:59:55;2.20;;;1.70;;
56770;SDS011;42641;59.794;17.616;2023-12-29T05:02:22;1.80;;;1.60;;
56770;SDS011;42641;59.794;17.616;2023-12-29T05:04:48;1.70;;;1.60;;
56770;SDS011;42641;59.794;17.616;2023-12-29T05:07:15;1.37;;;1.27;;
56770;SDS011;42641;59.794;17.616;2023-12-29T05:09:41;1.60;;;1.50;;
56770;SDS011;42641;59.794;17.616;2023-12-29T05:12:07;1.77;;;1.60;;
56770;SDS011;42641;59.794;17.616;2023-12-29T05:14:34;2.70;;;1.57;;
56770;SDS011;42641;59.794;17.616;2023-12-29T05:17:00;2.27;;;1.80;;
56770;SDS011;42641;59.794;17.616;2023-12-29T05:19:27;1.30;;;1.20;;
56770;SDS011;42641;59.794;17.616;2023-12-29T05:21:53;1.70;;;1.53;;
56770;SDS011;42641;59.794;17.616;2023-12-29T05:24:19;1.80;;;1.70;;
56770;SDS011;42641;59.794;17.616;2023-12-29T05:26:46;1.60;;;1.50;;
56770;SDS011;42641;59.794;17.616;2023-12-29T05:29:12;1.70;;;1.60;;
56770;SDS011;42641;59.794;17.616;2023-12-29T05:31:40;1.50;;;1.40;;
56770;SDS011;42641;59.794;17.616;2023-12-29T05:34:06;1.50;;;1.40;;
56770;SDS011;42641;59.794;17.616;2023-12-29T05:36:36;2.40;;;1.70;;
56770;SDS011;42641;59.794;17.616;2023-12-29T05:39:03;1.30;;;1.20;;
56770;SDS011;42641;59.794;17.616;2023-12-29T05:41:29;1.40;;;1.30;;
56770;SDS011;42641;59.794;17.616;2023-12-29T05:43:56;1.20;;;1.10;;
56770;SDS011;42641;59.794;17.616;2023-12-29T05:46:24;0.80;;;0.80;;
56770;SDS011;42641;59.794;17.616;2023-12-29T05:48:51;1.10;;;1.00;;
56770;SDS011;42641;59.794;17.616;2023-12-29T05:51:20;0.90;;;0.90;;
56770;SDS011;42641;59.794;17.616;2023-12-29T05:53:46;1.03;;;0.93;;
56770;SDS011;42641;59.794;17.616;2023-12-29T05:56:13;0.77;;;0.77;;
56770;SDS011;42641;59.794;17.616;2023-12-29T05:58:41;1.23;;;1.13;;
56770;SDS011;42641;59.794;17.616;2023-12-29T06:01:08;0.90;;;0.90;;
56770;SDS011;42641;59.794;17.616;2023-12-29T06:03:35;1.13;;;0.80;;
56770;SDS011;42641;59.794;17.616;2023-12-29T06:06:01;1.13;;;0.87;;
56770;SDS011;42641;59.794;17.616;2023-12-29T06:08:28;1.67;;;0.90;;
56770;SDS011;42641;59.794;17.616;2023-12-29T06:10:55;0.73;;;0.73;;
56770;SDS011;42641;59.794;17.616;2023-12-29T06:13:22;0.60;;;0.60;;
56770;SDS011;42641;59.794;17.616;2023-12-29T06:15:49;0.87;;;0.60;;
56770;SDS011;42641;59.794;17.616;2023-12-29T06:18:15;1.03;;;0.93;;
56770;SDS011;42641;59.794;17.616;2023-12-29T06:20:41;1.00;;;0.83;;
56770;SDS011;42641;59.794;17.616;2023-12-29T06:23:08;0.70;;;0.70;;
56770;SDS011;42641;59.794;17.616;2023-12-29T06:25:36;0.70;;;0.70;;
56770;SDS011;42641;59.794;17.616;2023-12-29T06:28:05;0.70;;;0.70;;
56770;SDS011;42641;59.794;17.616;2023-12-29T06:30:32;0.70;;;0.60;;
56770;SDS011;42641;59.794;17.616;2023-12-29T06:32:58;0.60;;;0.60;;
56770;SDS011;42641;59.794;17.616;2023-12-29T06:35:25;0.40;;;0.40;;
56770;SDS011;42641;59.794;17.616;2023-12-29T06:37:51;0.57;;;0.50;;
56770;SDS011;42641;59.794;17.616;2023-12-29T06:40:18;0.73;;;0.50;;
56770;SDS011;42641;59.794;17.616;2023-12-29T06:42:44;0.63;;;0.60;;
56770;SDS011;42641;59.794;17.616;2023-12-29T06:45:11;0.60;;;0.60;;
56770;SDS011;42641;59.794;17.616;2023-12-29T06:47:37;0.40;;;0.40;;
56770;SDS011;42641;59.794;17.616;2023-12-29T06:50:04;0.50;;;0.50;;
56770;SDS011;42641;59.794;17.616;2023-12-29T06:52:32;0.50;;;0.50;;
56770;SDS011;42641;59.794;17.616;2023-12-29T06:55:00;0.60;;;0.60;;
56770;SDS011;42641;59.794;17.616;2023-12-29T06:57:28;0.60;;;0.60;;
56770;SDS011;42641;59.794;17.616;2023-12-29T06:59:54;0.47;;;0.47;;
56770;SDS011;42641;59.794;17.616;2023-12-29T07:02:23;0.50;;;0.50;;
56770;SDS011;42641;59.794;17.616;2023-12-29T07:04:49;0.43;;;0.43;;
56770;SDS011;42641;59.794;17.616;2023-12-29T07:07:16;0.47;;;0.47;;
56770;SDS011;42641;59.794;17.616;2023-12-29T07:09:43;0.50;;;0.50;;
56770;SDS011;42641;59.794;17.616;2023-12-29T07:12:09;0.30;;;0.30;;
56770;SDS011;42641;59.794;17.616;2023-12-29T07:14:36;0.50;;;0.50;;
56770;SDS011;42641;59.794;17.616;2023-12-29T07:17:02;0.47;;;0.47;;
56770;SDS011;42641;59.794;17.616;2023-12-29T07:19:29;0.50;;;0.50;;
56770;SDS011;42641;59.794;17.616;2023-12-29T07:22:03;0.30;;;0.30;;
56770;SDS011;42641;59.794;17.616;2023-12-29T07:24:31;0.30;;;0.30;;
56770;SDS011;42641;59.794;17.616;2023-12-29T07:26:58;0.40;;;0.40;;
56770;SDS011;42641;59.794;17.616;2023-12-29T07:29:25;0.30;;;0.30;;
56770;SDS011;42641;59.794;17.616;2023-12-29T07:31:51;0.40;;;0.40;;
56770;SDS011;42641;59.794;17.616;2023-12-29T07:34:19;0.40;;;0.40;;
56770;SDS011;42641;59.794;17.616;2023-12-29T07:36:46;0.50;;;0.50;;
56770;SDS011;42641;59.794;17.616;2023-12-29T07:39:12;0.30;;;0.30;;
56770;SDS011;42641;59.794;17.616;2023-12-29T07:41:39;0.50;;;0.50;;
56770;SDS011;42641;59.794;17.616;2023-12-29T07:44:07;0.50;;;0.50;;
56770;SDS011;42641;59.794;17.616;2023-12-29T07:46:36;0.70;;;0.70;;
56770;SDS011;42641;59.794;17.616;2023-12-29T07:49:03;0.40;;;0.40;;
56770;SDS011;42641;59.794;17.616;2023-12-29T07:51:30;0.47;;;0.47;;
56770;SDS011;42641;59.794;17.616;2023-12-29T07:53:57;0.53;;;0.53;;
56770;SDS011;42641;59.794;17.616;2023-12-29T07:56:24;0.60;;;0.60;;
56770;SDS011;42641;59.794;17.616;2023-12-29T07:58:50;0.70;;;0.70;;
56770;SDS011;42641;59.794;17.616;2023-12-29T08:01:17;0.57;;;0.57;;
56770;SDS011;42641;59.794;17.616;2023-12-29T08:03:44;0.57;;;0.57;;
56770;SDS011;42641;59.794;17.616;2023-12-29T08:06:11;0.63;;;0.63;;
56770;SDS011;42641;59.794;17.616;2023-12-29T08:08:38;0.97;;;0.90;;
56770;SDS011;42641;59.794;17.616;2023-12-29T08:11:04;0.77;;;0.77;;
56770;SDS011;42641;59.794;17.616;2023-12-29T08:13:31;0.80;;;0.67;;
56770;SDS011;42641;59.794;17.616;2023-12-29T08:15:58;0.70;;;0.70;;
56770;SDS011;42641;59.794;17.616;2023-12-29T08:18:25;1.47;;;0.80;;
56770;SDS011;42641;59.794;17.616;2023-12-29T08:20:51;0.80;;;0.80;;
56770;SDS011;42641;59.794;17.616;2023-12-29T08:23:18;1.03;;;1.03;;
56770;SDS011;42641;59.794;17.616;2023-12-29T08:25:44;1.10;;;1.10;;
56770;SDS011;42641;59.794;17.616;2023-12-29T08:28:12;0.80;;;0.80;;
56770;SDS011;42641;59.794;17.616;2023-12-29T08:30:38;1.37;;;1.00;;
56770;SDS011;42641;59.794;17.616;2023-12-29T08:33:06;0.77;;;0.77;;
56770;SDS011;42641;59.794;17.616;2023-12-29T08:35:33;0.60;;;0.60;;
56770;SDS011;42641;59.794;17.616;2023-12-29T08:38:00;0.77;;;0.77;;
56770;SDS011;42641;59.794;17.616;2023-12-29T08:40:27;0.70;;;0.70;;
56770;SDS011;42641;59.794;17.616;2023-12-29T08:42:53;0.80;;;0.80;;
56770;SDS011;42641;59.794;17.616;2023-12-29T08:45:20;0.80;;;0.80;;
56770;SDS011;42641;59.794;17.616;2023-12-29T08:47:47;0.53;;;0.53;;
56770;SDS011;42641;59.794;17.616;2023-12-29T08:50:13;0.60;;;0.60;;
56770;SDS011;42641;59.794;17.616;2023-12-29T08:52:41;0.50;;;0.50;;
56770;SDS011;42641;59.794;17.616;2023-12-29T08:55:07;0.77;;;0.77;;
56770;SDS011;42641;59.794;17.616;2023-12-29T08:57:34;1.10;;;1.00;;
56770;SDS011;42641;59.794;17.616;2023-12-29T09:00:00;1.53;;;1.30;;
56770;SDS011;42641;59.794;17.616;2023-12-29T09:02:27;1.10;;;1.10;;
56770;SDS011;42641;59.794;17.616;2023-12-29T09:04:53;1.20;;;1.10;;
56770;SDS011;42641;59.794;17.616;2023-12-29T09:07:19;1.17;;;1.13;;
56770;SDS011;42641;59.794;17.616;2023-12-29T09:09:46;1.10;;;1.00;;
56770;SDS011;42641;59.794;17.616;2023-12-29T09:12:12;1.00;;;1.00;;
56770;SDS011;42641;59.794;17.616;2023-12-29T09:14:39;1.37;;;1.27;;
56770;SDS011;42641;59.794;17.616;2023-12-29T09:17:05;1.20;;;1.10;;
56770;SDS011;42641;59.794;17.616;2023-12-29T09:19:31;1.30;;;1.20;;
56770;SDS011;42641;59.794;17.616;2023-12-29T09:21:58;1.10;;;1.03;;
56770;SDS011;42641;59.794;17.616;2023-12-29T09:24:24;1.83;;;1.10;;
56770;SDS011;42641;59.794;17.616;2023-12-29T09:26:51;1.60;;;1.50;;
56770;SDS011;42641;59.794;17.616;2023-12-29T09:29:18;1.40;;;1.30;;
56770;SDS011;42641;59.794;17.616;2023-12-29T09:31:44;1.57;;;1.47;;
56770;SDS011;42641;59.794;17.616;2023-12-29T09:34:10;2.60;;;2.10;;
56770;SDS011;42641;59.794;17.616;2023-12-29T09:36:37;2.17;;;1.97;;
56770;SDS011;42641;59.794;17.616;2023-12-29T09:39:03;3.97;;;3.23;;
56770;SDS011;42641;59.794;17.616;2023-12-29T09:41:30;3.97;;;2.90;;
56770;SDS011;42641;59.794;17.616;2023-12-29T09:44:00;2.43;;;2.23;;
56770;SDS011;42641;59.794;17.616;2023-12-29T09:46:27;2.40;;;2.00;;
56770;SDS011;42641;59.794;17.616;2023-12-29T09:48:57;2.03;;;1.90;;
56770;SDS011;42641;59.794;17.616;2023-12-29T09:51:30;2.20;;;2.00;;
56770;SDS011;42641;59.794;17.616;2023-12-29T09:53:56;2.67;;;2.47;;
56770;SDS011;42641;59.794;17.616;2023-12-29T09:56:24;2.97;;;2.50;;
56770;SDS011;42641;59.794;17.616;2023-12-29T09:58:51;2.67;;;2.47;;
56770;SDS011;42641;59.794;17.616;2023-12-29T10:01:18;2.10;;;1.90;;
56770;SDS011;42641;59.794;17.616;2023-12-29T10:03:47;2.00;;;1.70;;
56770;SDS011;42641;59.794;17.616;2023-12-29T10:06:19;1.80;;;1.60;;
56770;SDS011;42641;59.794;17.616;2023-12-29T10:08:47;2.30;;;2.10;;
56770;SDS011;42641;59.794;17.616;2023-12-29T10:11:20;2.10;;;1.90;;
56770;SDS011;42641;59.794;17.616;2023-12-29T10:13:49;2.07;;;1.90;;
56770;SDS011;42641;59.794;17.616;2023-12-29T10:22:18;1.50;;;1.40;;
56770;SDS011;42641;59.794;17.616;2023-12-29T10:24:49;1.57;;;1.47;;
56770;SDS011;42641;59.794;17.616;2023-12-29T10:27:16;1.73;;;1.63;;
56770;SDS011;42641;59.794;17.616;2023-12-29T10:29:43;1.93;;;1.67;;
56770;SDS011;42641;59.794;17.616;2023-12-29T10:32:10;2.07;;;1.87;;
56770;SDS011;42641;59.794;17.616;2023-12-29T10:34:36;2.00;;;1.80;;
56770;SDS011;42641;59.794;17.616;2023-12-29T10:37:03;1.93;;;1.50;;
56770;SDS011;42641;59.794;17.616;2023-12-29T10:39:35;1.50;;;1.40;;
56770;SDS011;42641;59.794;17.616;2023-12-29T10:42:03;1.93;;;1.73;;
56770;SDS011;42641;59.794;17.616;2023-12-29T10:44:33;1.50;;;1.30;;
56770;SDS011;42641;59.794;17.616;2023-12-29T10:47:07;1.80;;;1.70;;
56770;SDS011;42641;59.794;17.616;2023-12-29T10:49:35;1.73;;;1.60;;
56770;SDS011;42641;59.794;17.616;2023-12-29T10:52:11;1.53;;;1.40;;
56770;SDS011;42641;59.794;17.616;2023-12-29T10:54:43;1.50;;;1.40;;
56770;SDS011;42641;59.794;17.616;2023-12-29T10:57:10;1.50;;;1.40;;
56770;SDS011;42641;59.794;17.616;2023-12-29T10:59:38;1.67;;;1.57;;
56770;SDS011;42641;59.794;17.616;2023-12-29T11:02:05;1.60;;;1.50;;
56770;SDS011;42641;59.794;17.616;2023-12-29T11:04:34;1.60;;;1.50;;
56770;SDS011;42641;59.794;17.616;2023-12-29T11:07:00;1.87;;;1.60;;
56770;SDS011;42641;59.794;17.616;2023-12-29T11:09:31;1.90;;;1.63;;
56770;SDS011;42641;59.794;17.616;2023-12-29T11:12:00;4.23;;;1.60;;
56770;SDS011;42641;59.794;17.616;2023-12-29T11:14:28;2.60;;;1.60;;
56770;SDS011;42641;59.794;17.616;2023-12-29T11:16:56;2.40;;;1.70;;
56770;SDS011;42641;59.794;17.616;2023-12-29T11:19:24;2.70;;;1.73;;
56770;SDS011;42641;59.794;17.616;2023-12-29T11:21:52;2.43;;;1.73;;
56770;SDS011;42641;59.794;17.616;2023-12-29T11:24:20;1.70;;;1.43;;
56770;SDS011;42641;59.794;17.616;2023-12-29T11:26:50;2.83;;;1.30;;
56770;SDS011;42641;59.794;17.616;2023-12-29T11:29:18;1.70;;;1.60;;
56770;SDS011;42641;59.794;17.616;2023-12-29T11:31:45;1.40;;;1.30;;
56770;SDS011;42641;59.794;17.616;2023-12-29T11:34:23;1.60;;;1.50;;
56770;SDS011;42641;59.794;17.616;2023-12-29T11:36:56;1.40;;;1.30;;
56770;SDS011;42641;59.794;17.616;2023-12-29T11:39:43;1.50;;;1.40;;
56770;SDS011;42641;59.794;17.616;2023-12-29T11:42:23;4.53;;;1.40;;
56770;SDS011;42641;59.794;17.616;2023-12-29T11:44:56;1.70;;;1.50;;
56770;SDS011;42641;59.794;17.616;2023-12-29T11:47:35;1.60;;;1.50;;
56770;SDS011;42641;59.794;17.616;2023-12-29T11:50:03;2.00;;;1.77;;
56770;SDS011;42641;59.794;17.616;2023-12-29T11:52:38;1.80;;;1.60;;
56770;SDS011;42641;59.794;17.616;2023-12-29T11:55:08;1.70;;;1.60;;
56770;SDS011;42641;59.794;17.616;2023-12-29T11:57:35;1.63;;;1.53;;
56770;SDS011;42641;59.794;17.616;2023-12-29T12:00:02;3.30;;;1.90;;
56770;SDS011;42641;59.794;17.616;2023-12-29T12:02:37;1.93;;;1.70;;
56770;SDS011;42641;59.794;17.616;2023-12-29T12:05:05;1.90;;;1.70;;
56770;SDS011;42641;59.794;17.616;2023-12-29T12:12:49;1.57;;;1.47;;
56770;SDS011;42641;59.794;17.616;2023-12-29T12:17:52;1.93;;;1.73;;
56770;SDS011;42641;59.794;17.616;2023-12-29T12:20:19;1.77;;;1.67;;
56770;SDS011;42641;59.794;17.616;2023-12-29T12:22:46;2.40;;;1.90;;
56770;SDS011;42641;59.794;17.616;2023-12-29T12:25:16;2.70;;;1.90;;
56770;SDS011;42641;59.794;17.616;2023-12-29T12:27:44;1.77;;;1.67;;
56770;SDS011;42641;59.794;17.616;2023-12-29T12:30:11;3.33;;;1.93;;
56770;SDS011;42641;59.794;17.616;2023-12-29T12:32:45;3.07;;;2.23;;
56770;SDS011;42641;59.794;17.616;2023-12-29T12:35:15;2.40;;;2.20;;
56770;SDS011;42641;59.794;17.616;2023-12-29T12:37:42;2.60;;;2.40;;
56770;SDS011;42641;59.794;17.616;2023-12-29T12:40:09;2.40;;;2.20;;
56770;SDS011;42641;59.794;17.616;2023-12-29T12:42:38;2.83;;;2.30;;
56770;SDS011;42641;59.794;17.616;2023-12-29T12:45:12;2.47;;;2.10;;
56770;SDS011;42641;59.794;17.616;2023-12-29T12:47:44;2.33;;;2.13;;
56770;SDS011;42641;59.794;17.616;2023-12-29T12:50:15;1.97;;;1.77;;
56770;SDS011;42641;59.794;17.616;2023-12-29T12:52:42;2.63;;;2.17;;
56770;SDS011;42641;59.794;17.616;2023-12-29T12:55:08;2.33;;;2.10;;
56770;SDS011;42641;59.794;17.616;2023-12-29T12:57:36;2.33;;;2.13;;
56770;SDS011;42641;59.794;17.616;2023-12-29T13:00:03;3.30;;;3.00;;
56770;SDS011;42641;59.794;17.616;2023-12-29T13:02:31;3.67;;;3.23;;
56770;SDS011;42641;59.794;17.616;2023-12-29T13:04:59;6.50;;;2.90;;
56770;SDS011;42641;59.794;17.616;2023-12-29T13:07:25;2.80;;;2.50;;
56770;SDS011;42641;59.794;17.616;2023-12-29T13:09:52;2.67;;;2.47;;
56770;SDS011;42641;59.794;17.616;2023-12-29T13:12:18;3.00;;;2.70;;
56770;SDS011;42641;59.794;17.616;2023-12-29T13:14:45;2.90;;;2.47;;
56770;SDS011;42641;59.794;17.616;2023-12-29T13:17:15;2.20;;;2.03;;
56770;SDS011;42641;59.794;17.616;2023-12-29T13:19:43;2.33;;;2.13;;
56770;SDS011;42641;59.794;17.616;2023-12-29T13:22:10;2.53;;;2.33;;
56770;SDS011;42641;59.794;17.616;2023-12-29T13:24:44;2.63;;;2.23;;
56770;SDS011;42641;59.794;17.616;2023-12-29T13:27:11;3.03;;;2.50;;
56770;SDS011;42641;59.794;17.616;2023-12-29T13:29:38;6.53;;;2.50;;
56770;SDS011;42641;59.794;17.616;2023-12-29T13:37:27;2.40;;;2.20;;
56770;SDS011;42641;59.794;17.616;2023-12-29T13:43:10;2.57;;;2.37;;
56770;SDS011;42641;59.794;17.616;2023-12-29T13:45:41;4.10;;;2.90;;
56770;SDS011;42641;59.794;17.616;2023-12-29T13:48:08;2.97;;;2.67;;
56770;SDS011;42641;59.794;17.616;2023-12-29T13:50:36;3.50;;;3.10;;
56770;SDS011;42641;59.794;17.616;2023-12-29T13:53:03;3.80;;;3.40;;
56770;SDS011;42641;59.794;17.616;2023-12-29T13:55:30;3.77;;;3.37;;
56770;SDS011;42641;59.794;17.616;2023-12-29T13:57:57;4.00;;;3.60;;
56770;SDS011;42641;59.794;17.616;2023-12-29T14:00:25;3.80;;;3.47;;
56770;SDS011;42641;59.794;17.616;2023-12-29T14:11:09;3.93;;;3.40;;
56770;SDS011;42641;59.794;17.616;2023-12-29T14:13:39;3.60;;;3.23;;
56770;SDS011;42641;59.794;17.616;2023-12-29T14:16:08;4.10;;;3.30;;
56770;SDS011;42641;59.794;17.616;2023-12-29T14:24:05;4.13;;;3.50;;
56770;SDS011;42641;59.794;17.616;2023-12-29T14:26:36;4.50;;;3.83;;
56770;SDS011;42641;59.794;17.616;2023-12-29T14:29:05;4.53;;;3.70;;
56770;SDS011;42641;59.794;17.616;2023-12-29T14:31:34;3.67;;;3.20;;
56770;SDS011;42641;59.794;17.616;2023-12-29T14:34:05;3.80;;;3.40;;
56770;SDS011;42641;59.794;17.616;2023-12-29T14:36:33;3.70;;;3.10;;
56770;SDS011;42641;59.794;17.616;2023-12-29T14:39:00;4.13;;;2.90;;
56770;SDS011;42641;59.794;17.616;2023-12-29T14:41:28;3.60;;;2.77;;
56770;SDS011;42641;59.794;17.616;2023-12-29T14:43:55;4.53;;;3.10;;
56770;SDS011;42641;59.794;17.616;2023-12-29T14:46:22;4.07;;;3.23;;
56770;SDS011;42641;59.794;17.616;2023-12-29T14:48:49;3.37;;;3.07;;
56770;SDS011;42641;59.794;17.616;2023-12-29T14:51:16;3.87;;;3.30;;
56770;SDS011;42641;59.794;17.616;2023-12-29T14:53:47;3.67;;;3.23;;
56770;SDS011;42641;59.794;17.616;2023-12-29T14:56:14;4.40;;;4.00;;
56770;SDS011;42641;59.794;17.616;2023-12-29T14:58:41;5.87;;;4.23;;
56770;SDS011;42641;59.794;17.616;2023-12-29T15:01:08;4.30;;;3.37;;
56770;SDS011;42641;59.794;17.616;2023-12-29T15:03:35;4.63;;;3.97;;
56770;SDS011;42641;59.794;17.616;2023-12-29T15:06:03;5.07;;;4.50;;
56770;SDS011;42641;59.794;17.616;2023-12-29T15:08:30;4.83;;;4.27;;
56770;SDS011;42641;59.794;17.616;2023-12-29T15:11:04;4.80;;;4.30;;
56770;SDS011;42641;59.794;17.616;2023-12-29T15:13:32;4.37;;;3.97;;
56770;SDS011;42641;59.794;17.616;2023-12-29T15:16:00;5.47;;;4.40;;
56770;SDS011;42641;59.794;17.616;2023-12-29T15:18:28;4.73;;;4.23;;